Time;durP1;ratioP1;P1;durP2;ratioP2;P2;SDS_P1;SDS_P2;PMS_P1;PMS_P2;Temp;Humidity;BMP_temperature;BMP_pressure;BME280_temperature;BME280_humidity;BME280_pressure;Samples;Min_cycle;Max_cycle;Signal;HPM_P1;HPM_P2
2022/06/19 00:01:40;;;;;;;11.32;8.70;;;29.20;99.90;;;;;;4172924;28;20451;-64
2022/06/19 00:03:48;;;;;;;6.90;5.63;;;29.20;99.90;;;;;;4174857;28;20692;-64
2022/06/19 00:05:53;;;;;;;6.72;4.55;;;29.20;99.90;;;;;;4173592;28;20427;-64
2022/06/19 00:07:59;;;;;;;7.43;3.65;;;29.30;99.90;;;;;;4171004;28;20041;-64
2022/06/19 00:10:07;;;;;;;5.80;3.60;;;29.30;99.90;;;;;;4168729;28;20136;-64
2022/06/19 00:12:12;;;;;;;6.70;3.90;;;29.40;99.90;;;;;;4169928;28;20041;-64
2022/06/19 00:14:16;;;;;;;8.07;4.18;;;29.40;99.90;;;;;;4169745;28;20639;-64
2022/06/19 00:16:22;;;;;;;7.25;3.72;;;29.40;99.90;;;;;;4167531;28;20041;-65
2022/06/19 00:18:27;;;;;;;4.97;3.33;;;29.40;99.90;;;;;;4176063;28;20556;-64
2022/06/19 00:20:34;;;;;;;5.00;3.05;;;29.40;99.90;;;;;;4159987;28;20055;-64
2022/06/19 00:22:41;;;;;;;7.72;3.60;;;29.50;99.90;;;;;;4161812;28;20115;-64
2022/06/19 00:24:48;;;;;;;5.03;3.25;;;29.50;99.90;;;;;;4178355;28;20767;-64
2022/06/19 00:26:55;;;;;;;7.65;4.55;;;29.50;99.90;;;;;;4178379;28;20808;-63
2022/06/19 00:29:00;;;;;;;8.35;4.97;;;29.60;99.90;;;;;;4178261;28;20075;-63
2022/06/19 00:31:05;;;;;;;8.05;5.07;;;29.60;99.90;;;;;;4163071;28;20387;-65
2022/06/19 00:33:11;;;;;;;8.65;4.30;;;29.70;99.90;;;;;;4178487;28;20065;-64
2022/06/19 00:35:21;;;;;;;7.25;3.97;;;29.70;99.90;;;;;;4179636;28;20446;-64
2022/06/19 00:37:27;;;;;;;9.32;4.50;;;29.70;99.90;;;;;;4178477;28;20064;-64
2022/06/19 00:39:39;;;;;;;6.88;3.35;;;29.70;99.90;;;;;;4178317;28;20418;-64
2022/06/19 00:41:45;;;;;;;6.55;2.92;;;29.70;99.90;;;;;;4193493;28;20040;-64
2022/06/19 00:43:54;;;;;;;3.63;2.35;;;29.70;99.50;;;;;;4179825;28;20053;-64
2022/06/19 00:46:02;;;;;;;4.97;2.38;;;29.80;99.50;;;;;;4177595;28;20052;-63
2022/06/19 00:48:16;;;;;;;10.13;2.85;;;29.80;99.60;;;;;;4178409;28;20068;-64
2022/06/19 00:50:28;;;;;;;6.93;2.70;;;29.80;99.80;;;;;;4192633;28;20040;-64
2022/06/19 00:52:39;;;;;;;6.47;2.75;;;29.90;99.90;;;;;;4180037;28;20044;-64
2022/06/19 00:55:09;;;;;;;4.57;2.65;;;30.00;99.90;;;;;;4179948;28;20049;-64
2022/06/19 00:57:15;;;;;;;5.07;2.90;;;30.00;99.90;;;;;;4179036;28;20095;-64
2022/06/19 00:59:22;;;;;;;6.45;3.30;;;30.00;99.90;;;;;;4180338;28;20094;-64
2022/06/19 01:01:32;;;;;;;7.80;3.28;;;30.00;99.90;;;;;;4179436;28;20499;-64
2022/06/19 01:04:04;;;;;;;4.32;2.75;;;30.10;99.50;;;;;;4168758;28;21487;-64
2022/06/19 01:06:21;;;;;;;3.80;2.57;;;30.00;99.40;;;;;;4173451;28;20045;-64
2022/06/19 01:08:31;;;;;;;13.07;2.58;;;30.20;99.30;;;;;;4171333;28;20041;-64
2022/06/19 01:10:39;;;;;;;2.97;1.98;;;30.30;98.90;;;;;;4174710;28;20037;-64
2022/06/19 01:12:49;;;;;;;4.20;1.92;;;30.40;98.50;;;;;;4172728;28;20562;-64
2022/06/19 01:15:00;;;;;;;5.60;2.10;;;30.50;98.40;;;;;;4172048;28;20056;-63
2022/06/19 01:17:15;;;;;;;3.80;2.25;;;30.50;98.30;;;;;;4174261;28;20139;-63
2022/06/19 01:19:30;;;;;;;5.95;2.38;;;30.60;98.10;;;;;;4171965;28;20078;-64
2022/06/19 01:21:54;;;;;;;4.65;2.42;;;30.60;97.50;;;;;;4171541;28;20588;-64
2022/06/19 01:24:12;;;;;;;3.67;1.98;;;30.60;97.30;;;;;;4174317;28;20041;-64
2022/06/19 01:26:24;;;;;;;4.05;2.03;;;30.70;96.90;;;;;;4170522;28;20045;-64
2022/06/19 01:30:53;;;;;;;3.35;2.20;;;30.90;96.80;;;;;;4172828;28;20058;-63
2022/06/19 01:33:00;;;;;;;5.65;2.10;;;31.00;96.20;;;;;;4173843;28;20551;-64
2022/06/19 01:35:08;;;;;;;6.22;2.10;;;31.00;96.50;;;;;;4171907;28;20056;-64
2022/06/19 01:37:28;;;;;;;3.95;1.90;;;31.10;96.70;;;;;;4171381;28;20041;-64
2022/06/19 01:39:38;;;;;;;4.47;1.90;;;31.20;96.70;;;;;;4173337;28;20072;-64
2022/06/19 01:41:45;;;;;;;6.28;2.00;;;31.20;96.50;;;;;;4173718;28;20037;-64
2022/06/19 01:43:51;;;;;;;3.10;1.90;;;31.20;96.70;;;;;;4173675;28;20456;-64
2022/06/19 01:46:00;;;;;;;2.95;1.90;;;31.30;96.00;;;;;;4173285;28;20139;-64
2022/06/19 01:48:05;;;;;;;3.33;2.08;;;31.40;96.40;;;;;;4172234;28;20049;-64
2022/06/19 01:50:19;;;;;;;3.08;1.80;;;31.40;95.50;;;;;;4173589;28;20037;-64
2022/06/19 01:52:36;;;;;;;4.53;1.73;;;31.40;94.90;;;;;;4170230;28;20067;-65
2022/06/19 01:54:46;;;;;;;3.47;1.50;;;31.40;94.00;;;;;;4173468;28;20045;-64
2022/06/19 01:56:55;;;;;;;4.30;1.50;;;31.50;94.00;;;;;;4173251;28;20044;-64
2022/06/19 01:59:09;;;;;;;4.63;1.80;;;31.50;94.10;;;;;;4173155;28;20037;-64
2022/06/19 02:01:21;;;;;;;5.90;1.98;;;31.60;93.60;;;;;;4171700;28;20052;-64
2022/06/19 02:03:47;;;;;;;4.32;1.60;;;31.60;93.50;;;;;;4172426;28;20041;-64
2022/06/19 02:05:59;;;;;;;2.70;1.90;;;31.70;93.40;;;;;;4171790;28;20503;-64
2022/06/19 02:08:10;;;;;;;5.38;2.10;;;31.70;93.30;;;;;;4173343;28;20132;-64
2022/06/19 02:10:22;;;;;;;2.63;1.42;;;31.80;93.40;;;;;;4172697;28;20442;-64
2022/06/19 02:12:32;;;;;;;2.42;1.40;;;31.80;93.30;;;;;;4173468;28;20136;-64
2022/06/19 02:14:42;;;;;;;3.38;1.50;;;31.90;93.20;;;;;;4145775;28;20472;-64
2022/06/19 02:16:48;;;;;;;7.00;1.10;;;32.00;93.30;;;;;;4172862;28;20102;-64
2022/06/19 02:19:02;;;;;;;2.80;1.30;;;32.00;93.40;;;;;;4172091;28;20100;-64
2022/06/19 02:21:21;;;;;;;5.28;1.48;;;32.10;93.10;;;;;;4173127;28;20057;-64
2022/06/19 02:23:30;;;;;;;1.88;1.20;;;32.10;93.10;;;;;;4170609;28;20041;-65
2022/06/19 02:25:41;;;;;;;4.15;1.30;;;32.10;93.00;;;;;;4171106;28;20053;-65
2022/06/19 02:27:55;;;;;;;1.83;1.20;;;32.20;92.60;;;;;;4171808;28;20056;-64
2022/06/19 02:30:02;;;;;;;4.13;1.20;;;32.20;92.40;;;;;;4171621;28;20048;-64
2022/06/19 02:32:22;;;;;;;3.38;1.30;;;32.20;92.20;;;;;;4172850;28;20064;-64
2022/06/19 02:34:50;;;;;;;;;;;32.30;92.30;;;;;;4142835;28;20045;-64
2022/06/19 02:37:17;;;;;;;2.08;1.10;;;32.30;92.30;;;;;;4172120;28;20310;-64
2022/06/19 02:39:41;;;;;;;2.55;1.00;;;32.40;91.80;;;;;;4171416;28;20038;-65
2022/06/19 02:42:18;;;;;;;2.88;1.00;;;32.40;91.90;;;;;;4172165;28;20044;-64
2022/06/19 02:44:41;;;;;;;1.58;0.90;;;32.50;91.30;;;;;;4171171;28;20395;-64
2022/06/19 02:46:47;;;;;;;3.53;1.13;;;32.40;91.20;;;;;;4172474;28;20041;-64
2022/06/19 02:48:57;;;;;;;2.97;0.98;;;32.60;91.30;;;;;;4171824;28;20052;-64
2022/06/19 02:51:10;;;;;;;2.78;1.00;;;32.60;91.30;;;;;;4172130;28;20048;-64
2022/06/19 02:53:27;;;;;;;5.07;1.10;;;32.70;91.20;;;;;;4171890;28;20048;-64
2022/06/19 02:55:42;;;;;;;2.25;1.00;;;32.70;91.10;;;;;;4172630;28;20166;-64
2022/06/19 02:57:49;;;;;;;2.10;0.98;;;32.80;90.90;;;;;;4171267;28;20099;-64
2022/06/19 02:59:57;;;;;;;1.70;1.10;;;32.80;91.00;;;;;;4172535;28;20133;-64
2022/06/19 03:02:13;;;;;;;1.98;1.20;;;32.80;90.80;;;;;;4172244;28;20049;-64
2022/06/19 03:04:26;;;;;;;1.48;1.23;;;32.80;90.70;;;;;;4172710;28;20111;-64
2022/06/19 03:06:35;;;;;;;3.05;1.00;;;32.80;90.80;;;;;;4172532;28;20053;-64
2022/06/19 03:08:42;;;;;;;2.83;1.20;;;32.90;90.60;;;;;;4172415;28;20739;-64
2022/06/19 03:10:48;;;;;;;4.65;1.27;;;32.90;91.00;;;;;;4169831;28;20623;-64
2022/06/19 03:13:01;;;;;;;4.57;1.45;;;33.00;91.00;;;;;;4172159;28;20045;-64
2022/06/19 03:15:11;;;;;;;2.33;1.13;;;33.00;90.30;;;;;;4153087;28;20658;-64
2022/06/19 03:17:24;;;;;;;1.42;0.80;;;33.00;90.20;;;;;;4172265;28;20087;-63
2022/06/19 03:19:45;;;;;;;1.70;0.80;;;32.90;90.70;;;;;;4170129;28;20499;-64
2022/06/19 03:21:52;;;;;;;2.10;1.10;;;33.00;90.50;;;;;;4171893;28;20051;-64
2022/06/19 03:23:59;;;;;;;2.72;1.10;;;33.10;90.70;;;;;;4171094;28;20044;-64
2022/06/19 03:26:05;;;;;;;1.90;1.00;;;33.20;91.10;;;;;;4171986;28;20052;-63
2022/06/19 03:28:13;;;;;;;4.57;0.98;;;33.40;90.50;;;;;;4171161;28;20048;-64
2022/06/19 03:30:33;;;;;;;2.88;1.00;;;33.40;89.70;;;;;;4171558;28;20613;-63
2022/06/19 03:32:40;;;;;;;4.53;1.10;;;33.20;89.70;;;;;;4172204;28;20072;-64
2022/06/19 03:34:46;;;;;;;2.50;0.90;;;33.30;90.30;;;;;;4172548;28;20480;-64
2022/06/19 03:36:57;;;;;;;1.65;0.90;;;33.50;90.40;;;;;;4172016;28;20136;-63
2022/06/19 03:39:06;;;;;;;4.57;0.63;;;33.50;90.00;;;;;;4170416;28;20140;-64
2022/06/19 03:41:25;;;;;;;1.80;0.77;;;33.60;88.90;;;;;;4171305;28;20051;-64
2022/06/19 03:43:34;;;;;;;2.80;1.20;;;33.50;89.30;;;;;;4171810;28;20057;-64
2022/06/19 03:45:41;;;;;;;4.22;1.85;;;33.50;88.90;;;;;;4170674;28;20037;-64
2022/06/19 03:47:54;;;;;;;;;;;33.50;88.00;;;;;;4172094;28;20052;-64
2022/06/19 03:50:01;;;;;;;1.52;0.90;;;33.50;89.50;;;;;;4172433;28;20328;-64
2022/06/19 03:52:20;;;;;;;4.78;3.35;;;33.60;89.40;;;;;;4172492;28;20056;-64
2022/06/19 03:54:26;;;;;;;4.75;3.28;;;33.50;89.80;;;;;;4164619;28;20049;-65
2022/06/19 03:56:35;;;;;;;1.88;1.40;;;33.40;89.40;;;;;;4171551;28;20049;-64
2022/06/19 03:58:51;;;;;;;4.15;2.05;;;33.50;89.30;;;;;;4172433;28;20106;-64
2022/06/19 04:01:10;;;;;;;2.33;1.70;;;33.70;89.00;;;;;;4172371;28;20052;-64
2022/06/19 04:03:26;;;;;;;2.88;1.42;;;33.70;88.70;;;;;;4171223;28;20134;-65
2022/06/19 04:05:37;;;;;;;3.50;1.40;;;33.70;89.30;;;;;;4165483;28;20188;-65
2022/06/19 04:07:49;;;;;;;2.37;1.20;;;33.70;88.90;;;;;;4165969;28;20399;-65
2022/06/19 04:10:00;;;;;;;3.03;1.30;;;33.70;89.90;;;;;;4172189;28;20045;-65
2022/06/19 04:12:09;;;;;;;2.25;1.02;;;33.90;88.60;;;;;;4172007;28;20041;-63
2022/06/19 04:14:22;;;;;;;3.28;1.13;;;34.00;88.70;;;;;;4172074;28;20037;-64
2022/06/19 04:16:30;;;;;;;3.42;1.10;;;34.00;88.50;;;;;;4172237;28;20057;-64
2022/06/19 04:18:42;;;;;;;2.45;1.25;;;34.00;88.80;;;;;;4165334;28;20045;-65
2022/06/19 04:21:03;;;;;;;1.52;1.08;;;34.20;89.60;;;;;;4171420;28;20407;-64
2022/06/19 04:23:12;;;;;;;1.85;1.30;;;34.20;88.60;;;;;;4171188;28;20099;-64
2022/06/19 04:25:35;;;;;;;3.28;1.52;;;34.20;89.40;;;;;;4172225;28;20068;-64
2022/06/19 04:27:48;;;;;;;3.88;1.60;;;34.30;88.80;;;;;;4172234;28;20067;-64
2022/06/19 04:29:58;;;;;;;2.17;1.15;;;34.40;89.20;;;;;;4170486;28;20083;-65
2022/06/19 04:32:13;;;;;;;3.25;1.33;;;34.40;87.80;;;;;;4170099;28;20479;-64
2022/06/19 04:34:27;;;;;;;1.65;1.25;;;34.50;88.60;;;;;;4169791;28;20056;-65
2022/06/19 04:36:34;;;;;;;2.28;1.05;;;34.60;89.30;;;;;;4171438;28;20079;-64
2022/06/19 04:38:46;;;;;;;2.65;1.27;;;34.60;87.80;;;;;;4171175;28;20045;-64
2022/06/19 04:40:56;;;;;;;4.47;1.58;;;34.50;88.40;;;;;;4171190;28;20049;-64
2022/06/19 04:43:03;;;;;;;1.40;0.90;;;34.60;87.20;;;;;;4167674;28;20053;-64
2022/06/19 04:45:13;;;;;;;4.07;1.45;;;34.70;87.10;;;;;;4169735;28;20051;-64
2022/06/19 04:47:27;;;;;;;1.92;1.25;;;34.70;86.90;;;;;;4167542;28;20158;-64
2022/06/19 04:49:33;;;;;;;2.03;1.20;;;34.90;87.50;;;;;;4171006;28;20045;-64
2022/06/19 04:51:47;;;;;;;1.47;0.90;;;34.80;86.50;;;;;;4171329;28;20487;-64
2022/06/19 04:53:57;;;;;;;1.48;0.80;;;34.80;87.70;;;;;;4168731;28;21078;-64
2022/06/19 04:56:04;;;;;;;1.85;1.10;;;35.00;86.90;;;;;;4171731;28;20033;-64
2022/06/19 04:58:31;;;;;;;2.05;1.00;;;35.10;86.60;;;;;;4169862;28;20099;-64
2022/06/19 05:00:40;;;;;;;1.67;0.93;;;35.20;87.00;;;;;;4170258;28;20080;-64
2022/06/19 05:02:51;;;;;;;2.40;0.98;;;35.20;85.40;;;;;;4171008;28;20049;-65
2022/06/19 05:04:59;;;;;;;2.05;1.00;;;35.30;86.20;;;;;;4170748;28;20098;-64
2022/06/19 05:07:07;;;;;;;2.38;1.08;;;35.00;85.60;;;;;;4169948;28;20057;-65
2022/06/19 05:09:13;;;;;;;2.50;0.82;;;35.10;87.20;;;;;;4170152;28;20498;-65
2022/06/19 05:11:22;;;;;;;1.92;0.90;;;35.20;85.80;;;;;;4174822;28;20578;-64
2022/06/19 05:13:29;;;;;;;1.70;0.80;;;35.20;84.70;;;;;;4172986;28;20822;-65
2022/06/19 05:15:35;;;;;;;1.92;0.90;;;35.30;86.20;;;;;;4157583;28;20565;-65
2022/06/19 05:17:40;;;;;;;2.05;0.95;;;35.30;84.80;;;;;;4178333;28;20111;-65
2022/06/19 05:19:45;;;;;;;1.67;0.80;;;35.40;84.80;;;;;;4177357;28;20037;-64
2022/06/19 05:21:50;;;;;;;1.58;0.90;;;35.50;85.90;;;;;;4179299;28;20395;-65
2022/06/19 05:23:57;;;;;;;1.73;0.90;;;35.30;84.60;;;;;;4178890;28;20053;-64
2022/06/19 05:26:07;;;;;;;1.92;1.00;;;35.50;85.20;;;;;;4178964;28;20045;-64
2022/06/19 05:28:12;;;;;;;1.15;0.70;;;35.50;84.20;;;;;;4177395;28;20479;-64
2022/06/19 05:30:17;;;;;;;1.15;0.75;;;35.40;85.00;;;;;;4179526;28;20091;-64
2022/06/19 05:32:26;;;;;;;2.15;0.98;;;35.40;84.10;;;;;;4179506;28;20037;-65
2022/06/19 05:34:32;;;;;;;3.50;1.10;;;35.30;84.50;;;;;;4168257;28;20037;-64
2022/06/19 05:36:37;;;;;;;1.63;1.00;;;35.40;84.40;;;;;;4180434;28;20044;-64
2022/06/19 05:38:44;;;;;;;1.23;0.77;;;35.50;83.40;;;;;;4179189;28;20045;-64
2022/06/19 05:40:52;;;;;;;1.40;0.73;;;35.40;84.00;;;;;;4179544;28;20106;-64
2022/06/19 05:42:57;;;;;;;1.60;0.70;;;35.60;84.20;;;;;;4180336;28;20037;-64
2022/06/19 05:45:05;;;;;;;1.95;1.13;;;35.70;82.70;;;;;;4169521;28;20075;-64
2022/06/19 05:47:17;;;;;;;1.70;1.10;;;35.60;83.20;;;;;;4180786;28;20055;-64
2022/06/19 05:49:22;;;;;;;1.17;0.60;;;35.60;82.70;;;;;;4174699;28;20495;-64
2022/06/19 05:51:29;;;;;;;3.05;1.10;;;35.50;82.30;;;;;;4188022;28;20117;-64
2022/06/19 05:53:39;;;;;;;3.05;1.20;;;35.30;83.40;;;;;;4156767;28;20045;-64
2022/06/19 05:55:46;;;;;;;1.83;0.95;;;35.30;84.10;;;;;;4180602;28;20068;-64
2022/06/19 05:57:53;;;;;;;3.10;0.88;;;35.30;83.60;;;;;;4180563;28;20049;-64
2022/06/19 05:59:58;;;;;;;2.78;0.93;;;35.30;82.40;;;;;;4179065;28;20072;-64
2022/06/19 06:02:10;;;;;;;1.77;0.90;;;35.50;82.10;;;;;;4180009;28;20048;-64
2022/06/19 06:04:17;;;;;;;2.58;0.90;;;35.30;83.70;;;;;;4179243;28;20049;-65
2022/06/19 06:06:30;;;;;;;3.78;1.00;;;35.50;85.30;;;;;;4176152;28;20056;-64
2022/06/19 06:08:37;;;;;;;1.52;0.70;;;35.40;81.90;;;;;;4172518;28;20511;-64
2022/06/19 06:10:49;;;;;;;1.45;0.73;;;35.50;82.00;;;;;;4179625;28;20049;-64
2022/06/19 06:12:54;;;;;;;1.77;0.80;;;35.70;82.40;;;;;;4145016;28;20124;-64
2022/06/19 06:15:00;;;;;;;1.90;0.80;;;35.60;81.80;;;;;;4179462;28;20052;-64
2022/06/19 06:17:08;;;;;;;1.70;0.85;;;35.80;82.60;;;;;;4179595;28;20087;-64
2022/06/19 06:19:13;;;;;;;1.75;0.80;;;36.00;82.60;;;;;;4179100;28;20036;-65
2022/06/19 06:21:21;;;;;;;3.70;1.10;;;35.90;82.40;;;;;;4179779;28;20033;-65
2022/06/19 06:23:26;;;;;;;2.65;1.00;;;35.90;82.80;;;;;;4176954;28;20041;-64
2022/06/19 06:25:30;;;;;;;2.90;1.05;;;35.80;83.20;;;;;;4179070;28;20079;-64
2022/06/19 06:27:35;;;;;;;2.72;1.00;;;36.00;83.20;;;;;;4168713;28;20545;-64
2022/06/19 06:29:42;;;;;;;3.28;0.95;;;36.20;83.40;;;;;;4171919;28;20045;-65
2022/06/19 06:31:47;;;;;;;2.78;1.00;;;36.20;82.10;;;;;;4172119;28;20080;-64
2022/06/19 06:33:51;;;;;;;3.42;0.90;;;36.10;80.90;;;;;;4173502;28;20059;-65
2022/06/19 06:35:57;;;;;;;1.27;0.85;;;35.80;81.30;;;;;;4156797;28;20056;-64
2022/06/19 06:38:01;;;;;;;2.17;0.90;;;35.90;81.80;;;;;;4172197;28;20115;-64
2022/06/19 06:40:09;;;;;;;1.77;0.73;;;36.10;80.90;;;;;;4158737;28;20084;-65
2022/06/19 06:42:13;;;;;;;1.63;0.77;;;36.30;81.30;;;;;;4174573;28;20063;-66
2022/06/19 06:44:18;;;;;;;1.58;0.70;;;36.40;81.70;;;;;;4172246;28;20068;-66
2022/06/19 06:46:26;;;;;;;2.08;0.73;;;36.30;80.30;;;;;;4174361;28;20534;-66
2022/06/19 06:48:35;;;;;;;1.83;0.95;;;36.10;81.10;;;;;;4121804;28;20406;-66
2022/06/19 06:50:40;;;;;;;2.20;0.93;;;36.10;81.50;;;;;;4188879;28;20510;-66
2022/06/19 06:52:47;;;;;;;1.83;1.20;;;36.10;81.70;;;;;;4174464;28;20041;-66
2022/06/19 06:54:54;;;;;;;4.90;1.35;;;36.10;81.50;;;;;;4170972;28;20053;-66
2022/06/19 06:56:59;;;;;;;4.50;1.05;;;36.20;81.60;;;;;;4167740;28;20042;-66
2022/06/19 06:59:04;;;;;;;1.95;0.93;;;36.20;82.90;;;;;;4166588;28;20064;-66
2022/06/19 07:01:15;;;;;;;4.60;0.90;;;35.90;81.80;;;;;;4188665;28;20052;-66
2022/06/19 07:03:19;;;;;;;4.82;1.05;;;36.00;81.10;;;;;;4174005;28;20114;-66
2022/06/19 07:05:27;;;;;;;2.67;0.90;;;35.90;80.70;;;;;;4171641;28;20049;-66
2022/06/19 07:07:34;;;;;;;4.28;1.23;;;35.70;81.40;;;;;;4188672;28;20056;-65
2022/06/19 07:09:44;;;;;;;3.67;1.58;;;35.80;81.60;;;;;;4172450;28;20095;-66
2022/06/19 07:12:01;;;;;;;3.50;1.10;;;36.10;80.80;;;;;;4173387;28;20075;-66
2022/06/19 07:14:09;;;;;;;2.65;0.98;;;36.20;80.70;;;;;;4171065;28;20055;-66
2022/06/19 07:16:13;;;;;;;3.38;1.48;;;36.10;81.50;;;;;;4173429;28;20060;-66
2022/06/19 07:18:20;;;;;;;1.83;1.30;;;36.00;82.10;;;;;;4173009;28;20077;-66
2022/06/19 07:20:26;;;;;;;1.83;1.10;;;36.30;81.90;;;;;;4172994;28;20053;-66
2022/06/19 07:22:34;;;;;;;3.03;1.13;;;36.40;81.70;;;;;;4174447;28;20083;-66
2022/06/19 07:24:39;;;;;;;3.97;1.13;;;36.50;81.50;;;;;;4171381;28;20059;-66
2022/06/19 07:26:43;;;;;;;2.03;1.10;;;36.60;82.50;;;;;;4187934;28;21047;-66
2022/06/19 07:28:48;;;;;;;3.13;1.10;;;36.60;81.70;;;;;;4172298;28;20049;-66
2022/06/19 07:31:01;;;;;;;3.38;0.90;;;36.70;81.60;;;;;;4173304;28;20127;-66
2022/06/19 07:33:12;;;;;;;4.03;0.93;;;36.70;80.90;;;;;;4170086;28;20072;-66
2022/06/19 07:35:17;;;;;;;1.98;1.00;;;36.60;81.60;;;;;;4163904;28;20048;-66
2022/06/19 07:37:23;;;;;;;3.90;0.88;;;36.60;80.50;;;;;;4173137;28;20044;-66
2022/06/19 07:39:30;;;;;;;1.85;0.88;;;36.40;81.10;;;;;;4172100;28;20134;-66
2022/06/19 07:41:35;;;;;;;2.03;0.77;;;36.30;80.90;;;;;;4173587;28;20054;-66
2022/06/19 07:43:43;;;;;;;1.58;0.82;;;36.20;80.80;;;;;;4170673;28;20555;-66
2022/06/19 07:45:53;;;;;;;0.65;0.50;;;36.40;80.50;;;;;;4163930;28;20041;-66
2022/06/19 07:50:17;;;;;;;2.15;0.60;;;36.40;77.60;;;;;;4172649;28;20045;-65
2022/06/19 07:52:24;;;;;;;1.77;0.60;;;36.50;77.80;;;;;;4153817;28;20081;-65
2022/06/19 07:54:29;;;;;;;5.18;0.93;;;36.30;79.60;;;;;;4172439;28;20075;-65
2022/06/19 07:56:36;;;;;;;1.25;0.60;;;36.30;79.00;;;;;;4172609;28;20049;-65
2022/06/19 07:58:41;;;;;;;1.80;0.70;;;36.20;78.80;;;;;;4170770;28;20041;-65
2022/06/19 08:00:48;;;;;;;2.80;0.63;;;36.30;78.60;;;;;;4172305;28;20037;-65
2022/06/19 08:02:53;;;;;;;2.22;0.70;;;36.30;79.00;;;;;;4171286;28;20040;-66
2022/06/19 08:05:02;;;;;;;3.60;0.80;;;36.30;78.50;;;;;;4172629;28;20128;-65
2022/06/19 08:07:13;;;;;;;1.88;0.60;;;36.30;80.10;;;;;;4172380;28;20071;-65
2022/06/19 08:09:22;;;;;;;2.33;0.52;;;36.20;79.40;;;;;;4169945;28;20079;-65
2022/06/19 08:11:28;;;;;;;2.83;0.65;;;36.10;78.90;;;;;;4171174;28;20048;-64
2022/06/19 08:13:33;;;;;;;1.75;0.98;;;36.00;78.60;;;;;;4169907;28;20050;-65
2022/06/19 08:15:49;;;;;;;5.30;1.20;;;36.00;78.70;;;;;;4171198;28;20044;-64
2022/06/19 08:17:55;;;;;;;4.07;1.40;;;36.00;78.60;;;;;;4170754;28;20551;-64
2022/06/19 08:20:06;;;;;;;0.77;0.57;;;36.20;79.50;;;;;;4171252;28;20510;-65
2022/06/19 08:22:12;;;;;;;1.35;0.90;;;36.20;78.70;;;;;;4172464;28;20416;-65
2022/06/19 08:24:17;;;;;;;4.15;1.17;;;36.30;78.40;;;;;;4169985;28;20056;-65
2022/06/19 08:26:22;;;;;;;2.45;0.85;;;36.50;78.70;;;;;;4172291;28;20055;-65
2022/06/19 08:30:43;;;;;;;2.10;0.45;;;36.70;77.30;;;;;;4170971;28;20076;-65
2022/06/19 08:32:50;;;;;;;2.22;0.57;;;36.60;77.80;;;;;;4169763;28;20049;-65
2022/06/19 08:34:57;;;;;;;1.50;0.70;;;36.40;77.80;;;;;;4171538;28;20041;-65
2022/06/19 08:37:04;;;;;;;0.98;0.70;;;36.30;78.30;;;;;;4171705;28;20044;-65
2022/06/19 08:39:16;;;;;;;2.58;1.00;;;36.40;78.70;;;;;;4169091;28;20121;-65
2022/06/19 08:41:50;;;;;;;2.30;1.00;;;36.40;79.20;;;;;;4170780;28;20511;-65
2022/06/19 08:44:22;;;;;;;0.98;0.73;;;36.50;79.10;;;;;;4171405;28;20131;-65
2022/06/19 08:46:53;;;;;;;3.13;0.80;;;36.50;79.90;;;;;;4172881;28;20080;-65
2022/06/19 08:49:40;;;;;;;5.07;0.88;;;36.40;79.20;;;;;;4175369;28;20052;-65
2022/06/19 08:52:23;;;;;;;1.25;0.80;;;36.20;79.60;;;;;;4140251;28;20100;-65
2022/06/19 08:55:03;;;;;;;1.88;0.90;;;36.10;80.40;;;;;;4173462;28;20075;-65
2022/06/19 08:57:39;;;;;;;1.70;0.90;;;36.00;80.30;;;;;;4172592;28;20044;-65
2022/06/19 09:00:14;;;;;;;2.83;0.82;;;35.90;79.00;;;;;;4173042;28;20055;-65
2022/06/19 09:02:50;;;;;;;1.58;0.80;;;35.90;79.70;;;;;;4175332;28;20044;-64
2022/06/19 09:07:56;;;;;;;3.72;2.30;;;35.90;80.30;;;;;;4180438;28;20044;-65
2022/06/19 09:10:15;;;;;;;3.33;1.50;;;35.80;79.70;;;;;;4177531;28;20045;-65
2022/06/19 09:12:46;;;;;;;3.72;1.63;;;35.70;79.50;;;;;;4179558;28;20069;-64
2022/06/19 09:15:10;;;;;;;3.20;0.95;;;35.80;80.00;;;;;;4179062;28;20052;-65
2022/06/19 09:17:22;;;;;;;0.93;0.80;;;35.60;79.90;;;;;;4178801;28;20083;-64
2022/06/19 09:19:58;;;;;;;1.52;0.70;;;35.70;80.10;;;;;;4179461;28;20483;-64
2022/06/19 09:22:27;;;;;;;2.88;0.80;;;35.60;78.90;;;;;;4177558;28;20049;-64
2022/06/19 09:25:03;;;;;;;1.90;0.60;;;35.80;80.20;;;;;;4178268;28;20767;-64
2022/06/19 09:27:11;;;;;;;1.17;0.70;;;35.80;78.30;;;;;;4179194;28;20049;-64
2022/06/19 09:29:39;;;;;;;2.03;0.90;;;35.60;79.20;;;;;;4173038;28;20087;-64
2022/06/19 09:31:57;;;;;;;3.13;1.98;;;35.60;79.60;;;;;;4177199;28;20090;-64
2022/06/19 09:34:38;;;;;;;2.63;1.38;;;35.60;77.60;;;;;;4177177;28;20060;-64
2022/06/19 09:36:48;;;;;;;2.70;1.73;;;35.60;79.30;;;;;;4176609;28;20059;-64
2022/06/19 09:39:14;;;;;;;;;;;35.50;79.00;;;;;;4180415;28;20102;-64
2022/06/19 09:41:20;;;;;;;;;;;35.60;78.40;;;;;;4160931;28;19925;-64
2022/06/19 09:43:55;;;;;;;3.38;1.38;;;35.50;79.30;;;;;;4178452;28;19948;-64
2022/06/19 09:46:28;;;;;;;4.15;3.00;;;35.40;80.40;;;;;;4178113;28;20072;-64
2022/06/19 09:48:54;;;;;;;2.80;1.65;;;35.40;79.20;;;;;;4179324;28;20045;-64
2022/06/19 09:51:31;;;;;;;1.33;0.80;;;35.50;78.90;;;;;;4177443;28;20068;-64
2022/06/19 09:53:51;;;;;;;3.13;1.00;;;35.50;78.30;;;;;;4177049;28;20605;-65
2022/06/19 09:56:13;;;;;;;2.40;1.52;;;35.70;78.60;;;;;;4176373;28;20049;-65
2022/06/19 09:58:42;;;;;;;3.63;1.60;;;35.80;80.70;;;;;;4179922;28;20543;-65
2022/06/19 10:00:50;;;;;;;3.00;1.83;;;35.80;81.30;;;;;;4178415;28;20044;-65
2022/06/19 10:03:19;;;;;;;5.22;1.90;;;35.80;81.50;;;;;;4176395;28;20065;-65
2022/06/19 10:05:46;;;;;;;4.95;3.15;;;35.80;82.40;;;;;;4158710;28;20050;-65
2022/06/19 10:07:57;;;;;;;5.72;2.92;;;35.80;82.40;;;;;;4178944;28;20056;-65
2022/06/19 10:10:15;;;;;;;4.55;2.05;;;35.80;83.20;;;;;;4176416;28;20611;-65
2022/06/19 10:12:26;;;;;;;4.18;2.17;;;35.90;82.90;;;;;;4178037;28;20048;-65
2022/06/19 10:14:41;;;;;;;4.10;1.80;;;35.90;82.60;;;;;;4177899;28;20033;-65
2022/06/19 10:17:12;;;;;;;4.63;1.80;;;36.00;83.20;;;;;;4177186;28;20079;-65
2022/06/19 10:19:31;;;;;;;3.53;1.70;;;36.00;82.40;;;;;;4178863;28;20045;-66
2022/06/19 10:25:03;;;;;;;2.08;1.40;;;36.00;82.50;;;;;;4177045;28;20392;-66
2022/06/19 10:27:42;;;;;;;3.20;1.30;;;36.10;81.70;;;;;;4178838;28;20037;-65
2022/06/19 10:29:53;;;;;;;2.13;1.30;;;36.00;81.80;;;;;;4176354;28;20640;-65
2022/06/19 10:32:30;;;;;;;3.03;1.42;;;36.00;82.00;;;;;;4176278;28;20072;-66
2022/06/19 10:34:57;;;;;;;5.68;1.75;;;36.00;82.10;;;;;;4177298;28;20048;-65
2022/06/19 10:37:31;;;;;;;2.50;1.60;;;36.00;82.00;;;;;;4193528;28;20048;-65
2022/06/19 10:39:58;;;;;;;5.03;2.60;;;36.00;82.40;;;;;;4176291;28;20087;-65
2022/06/19 10:42:24;;;;;;;3.40;2.10;;;35.90;81.40;;;;;;4177468;28;20053;-66
2022/06/19 10:44:57;;;;;;;3.20;2.10;;;35.80;82.30;;;;;;4178375;28;20072;-65
2022/06/19 10:47:17;;;;;;;4.30;1.60;;;35.60;82.70;;;;;;4177452;28;20072;-65
2022/06/19 10:49:49;;;;;;;4.65;1.92;;;35.50;83.50;;;;;;4177953;28;20051;-64
2022/06/19 10:52:18;;;;;;;3.20;2.40;;;35.30;84.50;;;;;;4176559;28;20811;-65
2022/06/19 10:54:48;;;;;;;5.55;2.17;;;35.20;84.20;;;;;;4175444;28;20781;-65
2022/06/19 10:57:27;;;;;;;4.63;2.13;;;35.10;84.70;;;;;;4174705;28;20052;-65
2022/06/19 11:00:05;;;;;;;3.72;1.90;;;35.00;85.30;;;;;;4166989;28;20102;-65
2022/06/19 11:05:57;;;;;;;4.22;1.65;;;34.90;85.70;;;;;;4164612;28;20051;-67
2022/06/19 11:08:35;;;;;;;2.88;1.95;;;34.90;85.30;;;;;;4176267;28;20083;-67
2022/06/19 11:10:57;;;;;;;4.03;1.85;;;34.80;85.30;;;;;;4175486;28;20032;-66
2022/06/19 11:13:07;;;;;;;4.45;1.60;;;34.80;85.30;;;;;;4142342;28;20088;-65
2022/06/19 11:15:43;;;;;;;2.60;1.75;;;34.70;85.60;;;;;;4141251;28;20564;-65
2022/06/19 11:18:12;;;;;;;6.20;2.10;;;34.70;85.70;;;;;;4142899;28;20037;-66
2022/06/19 11:20:30;;;;;;;3.92;1.70;;;34.70;85.80;;;;;;4142691;28;20610;-64
2022/06/19 11:22:38;;;;;;;3.03;1.90;;;34.70;85.60;;;;;;4144095;28;20053;-63
2022/06/19 11:24:44;;;;;;;7.28;2.58;;;34.70;85.20;;;;;;4143499;28;20060;-64
2022/06/19 11:26:55;;;;;;;7.72;5.43;;;34.60;85.70;;;;;;4134784;28;20096;-63
2022/06/19 11:29:20;;;;;;;10.80;7.28;;;34.60;85.30;;;;;;4140641;28;20510;-65
2022/06/19 11:31:31;;;;;;;14.60;7.13;;;34.60;84.60;;;;;;4126202;28;20133;-65
2022/06/19 11:33:44;;;;;;;13.02;7.00;;;34.60;84.70;;;;;;4126108;28;20054;-65
2022/06/19 11:35:55;;;;;;;106.03;55.35;;;34.60;85.20;;;;;;4142473;28;20077;-64
2022/06/19 11:38:00;;;;;;;58.10;31.13;;;34.50;85.90;;;;;;4142846;28;20050;-65
2022/06/19 11:40:18;;;;;;;48.20;26.23;;;34.40;86.40;;;;;;4142268;28;20157;-65
2022/06/19 11:42:46;;;;;;;19.67;9.35;;;34.40;86.40;;;;;;4143486;28;20058;-65
2022/06/19 11:44:53;;;;;;;18.63;5.57;;;34.30;86.20;;;;;;4168987;28;20052;-65
2022/06/19 11:46:59;;;;;;;10.05;2.70;;;33.40;89.90;;;;;;4177914;28;20094;-65
2022/06/19 11:49:25;;;;;;;12.90;3.10;;;33.10;90.30;;;;;;4178379;28;20717;-64
2022/06/19 11:51:38;;;;;;;6.82;2.17;;;32.70;90.70;;;;;;4171946;28;20083;-66